Latest Weather Observations for Beaudesert AWS

IDQ60901

Issued at 11:21 am EST Tuesday 21 April 2015 (issued every 10 minutes, with the page automatically refreshed every 10 minutes)

About weather observations | Map of Brisbane area stations | Latest observations for Brisbane area | Other Formats
Station Details ID: 040983 Name: BEAUDESERT DRUMLEY STREET Lat: -27.97 Lon: 152.99 Height: 47.81 m
Data from the previous 72 hours. | See also: Recent months at Beaudesert AWS
Date/Time
EST
Tmp

°C
App
Tmp
°C
Dew
Point
°C
Rel
Hum
%
Delta-T

°C
Wind Press
QNH
hPa
Press
MSL
hPa
Rain
since
9 am
mm
Dir
 
Spd
km/h
Gust
km/h
Spd
kts
Gust
kts
21/11:00am 19.1 16.7 6.9 45 6.1 NW 9 13 5 7 1016.7 1016.6 0.0
21/10:30am 18.8 16.7 9.6 55 4.9 NW 11 17 6 9 1016.7 1016.6 0.0
21/10:00am 17.8 16.7 9.9 60 4.2 NNW 6 9 3 5 1016.9 1016.8 0.0
21/09:30am 17.9 17.1 9.8 59 4.3 N 4 7 2 4 1017.2 1017.1 0.0
21/09:00am 16.7 16.0 10.1 65 3.5 WSW 4 6 2 3 1017.6 1017.5 3.4
21/08:30am 16.4 16.1 11.3 72 2.8 W 4 7 2 4 1017.7 1017.6 3.4
21/08:00am 15.4 15.7 12.3 82 1.7 NW 2 6 1 3 1017.3 1017.2 3.4
21/07:30am 14.4 14.2 11.9 85 1.3 NNW 4 7 2 4 1017.3 1017.2 3.4
21/07:00am 13.4 13.7 12.3 93 0.6 NNE 2 6 1 3 1017.0 1016.9 3.4
21/06:30am 12.5 13.0 11.6 94 0.5 CALM 0 2 0 1 1016.8 1016.7 3.4
21/06:00am 12.4 12.5 11.5 94 0.5 NW 2 6 1 3 1016.6 1016.5 3.4
21/05:30am 12.5 12.9 11.2 92 0.7 CALM 0 0 0 0 1016.5 1016.4 3.4
21/05:00am 13.1 13.7 12.0 93 0.6 CALM 0 0 0 0 1016.3 1016.2 3.4
21/04:30am 13.2 13.0 11.8 91 0.7 N 4 6 2 3 1016.2 1016.1 3.4
21/04:00am 13.0 12.8 11.9 93 0.6 NNE 4 6 2 3 1016.2 1016.1 3.4
21/03:30am 13.5 13.0 12.2 92 0.7 NNE 6 7 3 4 1016.1 1016.0 3.4
21/03:00am 13.4 13.6 11.8 90 0.9 N 2 4 1 2 1016.0 1015.9 3.4
21/02:30am 14.1 13.5 12.3 89 1.0 N 7 9 4 5 1016.2 1016.1 3.4
21/02:00am 14.4 13.9 12.6 89 1.0 NNE 7 9 4 5 1016.3 1016.2 3.4
21/01:30am 14.9 14.5 12.9 88 1.1 N 7 11 4 6 1016.6 1016.5 3.4
21/01:00am 15.4 14.8 13.4 88 1.1 N 9 13 5 7 1016.7 1016.6 3.4
21/12:30am 15.8 16.0 14.3 91 0.9 NNE 6 9 3 5 1016.5 1016.4 3.4
21/12:00am 15.9 15.9 14.3 90 0.9 N 7 11 4 6 1016.6 1016.5 3.4
 
Date/Time
EST
Tmp

°C
App
Tmp
°C
Dew
Point
°C
Rel
Hum
%
Delta-T

°C
Wind Press
QNH
hPa
Press
MSL
hPa
Rain
since
9 am
mm
Dir
 
Spd
km/h
Gust
km/h
Spd
kts
Gust
kts
20/11:30pm 16.1 16.4 14.5 90 0.9 NNW 6 9 3 5 1017.1 1017.0 3.4
20/11:00pm 16.4 16.7 14.9 91 0.9 NE 7 11 4 6 1017.3 1017.2 3.4
20/10:30pm 16.4 17.2 14.8 90 0.9 NE 4 6 2 3 1016.9 1016.8 3.4
20/10:00pm 16.5 16.9 14.7 89 1.0 N 6 11 3 6 1017.7 1017.6 3.4
20/09:30pm 17.1 17.7 15.8 92 0.8 NNW 7 15 4 8 1017.7 1017.6 3.4
20/09:00pm 17.9 18.8 16.6 92 0.8 NW 7 13 4 7 1017.5 1017.4 3.4
20/08:30pm 18.1 19.3 16.8 92 0.8 ENE 6 9 3 5 1017.0 1016.9 3.2
20/08:00pm 18.3 19.0 17.1 93 0.7 ENE 9 11 5 6 1017.3 1017.2 3.2
20/07:30pm 18.4 20.9 17.2 93 0.7 CALM 0 0 0 0 1018.0 1017.9 3.2
20/07:00pm 18.3 20.7 17.0 92 0.8 CALM 0 0 0 0 1017.8 1017.7 3.2
20/06:30pm 18.4 19.7 17.1 92 0.8 NE 6 7 3 4 1017.0 1016.9 3.0
20/06:00pm 18.6 21.1 17.3 92 0.8 CALM 0 4 0 2 1017.6 1017.5 2.4
20/05:30pm 18.6 21.1 17.3 92 0.8 CALM 0 0 0 0 1017.0 1016.9 2.4
20/05:00pm 18.7 20.8 17.2 91 0.9 NE 2 4 1 2 1016.9 1016.8 2.4
20/04:30pm 18.9 21.4 17.2 90 1.0 CALM 0 0 0 0 1017.0 1016.9 2.4
20/04:00pm 18.8 21.2 17.1 90 1.0 CALM 0 0 0 0 1016.8 1016.7 2.2
20/03:30pm 18.8 20.9 17.1 90 1.0 SSE 2 4 1 2 1016.6 1016.5 2.0
20/03:00pm 18.8 21.2 17.1 90 1.0 CALM 0 0 0 0 1016.5 1016.4 1.8
20/02:30pm 18.8 20.4 16.9 89 1.1 S 4 6 2 3 1016.3 1016.2 1.6
20/02:00pm 18.9 21.3 17.0 89 1.1 CALM 0 0 0 0 1016.7 1016.6 1.4
20/01:30pm 18.8 20.0 16.8 88 1.2 WSW 6 6 3 3 1017.1 1017.0 1.4
20/01:00pm 18.9 20.8 16.7 87 1.3 SSW 2 6 1 3 1016.8 1016.7 1.4
20/12:30pm 19.0 20.4 17.3 90 1.0 WSW 6 9 3 5 1017.5 1017.4 0.8
20/12:00pm 19.0 20.4 16.4 85 1.6 SSW 4 7 2 4 1017.7 1017.6 0.0
20/11:30am 19.2 20.3 16.6 85 1.6 SSW 6 9 3 5 1018.0 1017.9 0.0
20/11:00am 19.3 19.7 16.3 83 1.8 SW 9 15 5 8 1018.3 1018.2 0.0
20/10:30am 19.4 20.4 16.8 85 1.6 SW 7 11 4 6 1018.4 1018.3 0.0
20/10:00am 19.4 20.0 16.8 85 1.6 SW 9 13 5 7 1018.9 1018.8 0.0
20/09:30am 19.1 19.8 16.1 83 1.8 SSW 7 15 4 8 1018.8 1018.7 0.0
20/09:00am 18.9 19.1 16.7 87 1.3 SSW 11 22 6 12 1018.9 1018.8 8.2
20/08:30am 18.8 19.4 16.8 88 1.2 SW 9 19 5 10 1018.7 1018.6 8.2
20/08:00am 18.6 19.8 16.9 90 1.0 S 6 13 3 7 1018.5 1018.4 8.2
20/07:30am 18.8 20.1 17.5 92 0.8 SW 7 13 4 7 1018.6 1018.5 8.0
20/07:00am 19.3 21.4 18.1 93 0.7 W 4 7 2 4 1018.5 1018.4 8.0
20/06:30am 19.2 21.6 18.0 93 0.7 E 2 4 1 2 1018.1 1018.0 8.0
20/06:00am 19.2 22.0 18.0 93 0.7 CALM 0 0 0 0 1018.1 1018.0 7.8
20/05:30am 19.2 21.3 18.0 93 0.7 S 4 6 2 3 1017.7 1017.6 7.6
20/05:00am 19.5 22.1 18.3 93 0.7 NNE 2 4 1 2 1018.3 1018.2 7.6
20/04:30am 19.6 22.5 18.3 92 0.8 CALM 0 2 0 1 1017.9 1017.8 7.2
20/04:00am 19.7 22.7 18.4 92 0.8 CALM 0 0 0 0 1017.9 1017.8 6.4
20/03:30am 19.6 21.7 18.1 91 0.9 E 4 6 2 3 1017.6 1017.5 5.0
20/03:00am 19.9 21.7 18.4 91 0.9 S 6 7 3 4 1017.5 1017.4 4.4
20/02:30am 20.1 23.2 18.6 91 0.9 CALM 0 4 0 2 1017.8 1017.7 3.2
20/02:00am 20.3 22.1 18.8 91 0.9 SW 7 11 4 6 1017.3 1017.2 2.8
20/01:30am 20.4 22.2 18.7 90 1.1 SW 7 11 4 6 1017.4 1017.3 2.8
20/01:00am 20.2 23.4 18.9 92 0.8 CALM 0 0 0 0 1017.5 1017.4 2.8
20/12:30am 20.2 23.3 18.7 91 0.9 CALM 0 0 0 0 1017.6 1017.5 2.8
20/12:00am 20.0 23.1 18.7 92 0.8 CALM 0 4 0 2 1017.9 1017.8 2.8
 
Date/Time
EST
Tmp

°C
App
Tmp
°C
Dew
Point
°C
Rel
Hum
%
Delta-T

°C
Wind Press
QNH
hPa
Press
MSL
hPa
Rain
since
9 am
mm
Dir
 
Spd
km/h
Gust
km/h
Spd
kts
Gust
kts
19/11:30pm 20.1 23.3 18.8 92 0.8 CALM 0 0 0 0 1018.6 1018.5 2.6
19/11:00pm 20.2 23.4 18.9 92 0.8 CALM 0 4 0 2 1018.5 1018.4 2.6
19/10:30pm 19.8 22.4 18.5 92 0.8 SSW 2 4 1 2 1018.7 1018.6 2.6
19/10:00pm 19.9 23.0 18.6 92 0.8 CALM 0 0 0 0 1018.8 1018.7 2.6
19/09:30pm 19.9 22.9 18.4 91 0.9 CALM 0 0 0 0 1019.0 1018.9 2.6
19/09:00pm 19.7 22.6 18.2 91 0.9 CALM 0 0 0 0 1018.9 1018.8 2.6
19/08:30pm 20.0 22.9 18.3 90 1.1 CALM 0 0 0 0 1018.9 1018.8 2.6
19/08:00pm 20.1 23.0 18.2 89 1.2 CALM 0 0 0 0 1018.6 1018.5 2.6
19/07:30pm 20.1 22.6 18.2 89 1.2 S 2 2 1 1 1018.5 1018.4 2.6
19/07:00pm 20.4 23.4 18.5 89 1.2 CALM 0 0 0 0 1018.3 1018.2 2.6
19/06:30pm 20.3 22.4 18.2 88 1.3 ENE 4 6 2 3 1018.1 1018.0 2.6
19/06:00pm 20.5 22.9 18.8 90 1.1 WSW 4 7 2 4 1017.6 1017.5 2.6
19/05:30pm 21.0 24.2 18.9 88 1.3 CALM 0 0 0 0 1017.2 1017.1 2.6
19/05:00pm 20.9 23.3 18.7 87 1.4 SSW 4 6 2 3 1017.1 1017.0 2.6
19/04:30pm 21.2 23.8 19.3 89 1.2 SSW 4 6 2 3 1017.2 1017.1 2.6
19/04:00pm 21.4 24.1 19.5 89 1.2 SSE 4 9 2 5 1016.7 1016.6 2.6
19/03:30pm 21.1 23.2 19.0 88 1.3 S 6 11 3 6 1016.8 1016.7 2.6
19/03:00pm 23.1 22.1 17.6 71 3.4 WNW 19 41 10 22 1016.8 1016.7 0.0
19/02:54pm 24.9 25.4 16.6 60 5.1 NW 9 41 5 22 1016.6 1016.5 0.0
19/02:30pm 27.2 29.0 16.5 52 6.6 NNW 2 6 1 3 1016.3 1016.2 0.0
19/02:00pm 28.0 29.5 16.6 50 7.1 NE 4 7 2 4 1016.2 1016.1 0.0
19/01:30pm 27.6 28.8 15.9 49 7.2 NW 4 9 2 5 1016.5 1016.4 0.0
19/01:00pm 27.5 28.6 16.5 51 6.8 NNW 6 9 3 5 1017.1 1017.0 0.0
19/12:30pm 27.3 28.5 16.9 53 6.5 WNW 6 11 3 6 1017.4 1017.3 0.0
19/12:00pm 27.6 29.1 17.5 54 6.4 WNW 6 13 3 7 1017.9 1017.8 0.0
19/11:30am 26.3 27.3 16.8 56 5.9 WNW 7 13 4 7 1018.6 1018.5 0.0
19/11:00am 26.1 28.0 18.5 63 4.8 WNW 6 9 3 5 1019.2 1019.1 0.0
19/10:30am 25.2 27.1 17.7 63 4.7 WNW 4 9 2 5 1019.4 1019.3 0.0
19/10:00am 24.8 27.4 18.3 67 4.1 NW 2 9 1 5 1019.4 1019.3 0.0
19/09:30am 24.2 26.4 18.4 70 3.7 W 4 7 2 4 1019.8 1019.7 0.0
19/09:00am 23.1 25.9 18.8 77 2.7 WSW 2 6 1 3 1020.2 1020.1 0.0
19/08:30am 22.3 25.7 19.3 83 1.9 CALM 0 2 0 1 1019.9 1019.8 0.0
19/08:00am 21.2 24.4 18.9 87 1.4 CALM 0 0 0 0 1019.8 1019.7 0.0
19/07:30am 20.0 22.7 18.7 92 0.8 E 2 4 1 2 1019.8 1019.7 0.0
19/07:00am 18.8 21.4 17.6 93 0.7 CALM 0 0 0 0 1019.6 1019.5 0.0
19/06:30am 17.9 20.1 16.6 92 0.8 CALM 0 0 0 0 1019.4 1019.3 0.0
19/06:00am 17.9 20.1 16.6 92 0.8 CALM 0 0 0 0 1018.7 1018.6 0.0
19/05:30am 17.9 20.1 16.4 91 0.9 CALM 0 0 0 0 1018.5 1018.4 0.0
19/05:00am 18.6 21.0 17.1 91 0.9 CALM 0 0 0 0 1018.4 1018.3 0.0
19/04:30am 18.9 21.5 17.6 92 0.8 CALM 0 0 0 0 1018.5 1018.4 0.0
19/04:00am 18.9 21.5 17.4 91 0.9 CALM 0 0 0 0 1018.6 1018.5 0.0
19/03:30am 19.0 21.4 17.0 88 1.2 CALM 0 0 0 0 1018.4 1018.3 0.0
19/03:00am 20.1 22.6 18.1 88 1.2 NE 2 6 1 3 1018.6 1018.5 0.0
19/02:30am 20.4 23.3 18.2 87 1.4 CALM 0 0 0 0 1018.9 1018.8 0.0
19/02:00am 20.5 23.3 17.9 85 1.6 CALM 0 0 0 0 1019.3 1019.2 0.0
19/01:30am 20.8 23.6 18.0 84 1.7 CALM 0 2 0 1 1019.8 1019.7 0.0
19/01:00am 21.2 23.4 18.4 84 1.7 N 4 6 2 3 1020.2 1020.1 0.0
19/12:30am 21.4 23.1 18.6 84 1.8 N 7 13 4 7 1020.2 1020.1 0.0
19/12:00am 21.4 23.3 18.6 84 1.8 NNE 6 13 3 7 1020.2 1020.1 0.0
 
Date/Time
EST
Tmp

°C
App
Tmp
°C
Dew
Point
°C
Rel
Hum
%
Delta-T

°C
Wind Press
QNH
hPa
Press
MSL
hPa
Rain
since
9 am
mm
Dir
 
Spd
km/h
Gust
km/h
Spd
kts
Gust
kts
18/11:30pm 21.6 24.2 19.3 87 1.5 NNE 4 9 2 5 1020.4 1020.3 0.0
18/11:00pm 21.3 23.9 18.3 83 1.9 N 2 4 1 2 1020.5 1020.4 0.0
18/10:30pm 21.7 23.9 18.3 81 2.1 NNE 4 6 2 3 1020.5 1020.4 0.0
18/10:00pm 22.0 24.1 18.2 79 2.4 NNE 4 7 2 4 1020.6 1020.5 0.0
18/09:30pm 22.4 24.2 18.4 78 2.5 NNE 6 17 3 9 1020.8 1020.7 0.0
18/09:00pm 21.7 24.1 17.9 79 2.4 NE 2 4 1 2 1020.9 1020.8 0.0
18/08:30pm 21.6 23.5 17.6 78 2.5 NE 4 7 2 4 1020.7 1020.6 0.0
18/08:00pm 22.0 23.6 17.8 77 2.6 ENE 6 7 3 4 1020.6 1020.5 0.0
18/07:30pm 22.0 24.0 17.8 77 2.6 ENE 4 4 2 2 1020.4 1020.3 0.0
18/07:00pm 22.2 24.1 17.6 75 2.8 ENE 4 6 2 3 1020.0 1019.9 0.0
18/06:30pm 22.5 24.4 17.6 74 3.0 ENE 4 6 2 3 1019.6 1019.5 0.0
18/06:00pm 23.2 24.8 17.9 72 3.3 NE 6 9 3 5 1019.5 1019.4 0.0
18/05:30pm 24.0 25.4 17.7 68 3.9 NE 7 15 4 8 1019.3 1019.2 0.0
18/05:00pm 24.9 25.7 15.8 57 5.5 NNE 6 9 3 5 1019.3 1019.2 0.0
18/04:30pm 25.6 26.5 16.5 57 5.6 NE 7 15 4 8 1019.0 1018.9 0.0
18/04:00pm 26.4 26.9 16.6 55 6.1 NE 9 17 5 9 1018.6 1018.5 0.0
18/03:30pm 26.8 27.0 15.8 51 6.7 NNE 9 17 5 9 1018.5 1018.4 0.0
18/03:00pm 27.3 27.6 16.0 50 6.9 N 9 13 5 7 1018.5 1018.4 0.0
18/02:30pm 28.1 28.4 16.1 48 7.4 ENE 9 20 5 11 1018.6 1018.5 0.0
18/02:00pm 26.8 27.3 15.5 50 6.9 E 7 17 4 9 1018.8 1018.7 0.0
18/01:30pm 26.5 28.0 15.8 51 6.5 NNW 2 7 1 4 1019.2 1019.1 0.0
18/01:00pm 27.9 28.4 15.5 46 7.6 NE 7 17 4 9 1019.6 1019.5 0.0
18/12:30pm 26.9 27.6 16.2 52 6.6 NNE 7 11 4 6 1020.3 1020.2 0.0
18/12:00pm 27.3 28.3 16.3 51 6.8 NNW 6 15 3 8 1020.8 1020.7 0.0
18/11:30am 26.8 28.2 17.3 56 6.0 NW 6 9 3 5 1021.5 1021.4 0.0

Latest Capital City Observations: Canberra | Sydney | Melbourne | Brisbane | Adelaide | Perth | Hobart | Darwin

Other Formats:

Comma delimited format used in spreadsheet applications
http://www.bom.gov.au/fwo/IDQ60901/IDQ60901.95575.axf

JavaScript Object Notation format (JSON) in row-major order
http://www.bom.gov.au/fwo/IDQ60901/IDQ60901.95575.json